sensor_id;sensor_type;location;lat;lon;timestamp;P1;durP1;ratioP1;P2;durP2;ratioP2
75700;SDS011;64321;48.796;44.740;2024-03-22T00:00:52;13.30;;;3.63;;
75700;SDS011;64321;48.796;44.740;2024-03-22T00:05:54;17.52;;;4.43;;
75700;SDS011;64321;48.796;44.740;2024-03-22T00:10:55;10.68;;;4.30;;
75700;SDS011;64321;48.796;44.740;2024-03-22T00:15:57;14.27;;;4.55;;
75700;SDS011;64321;48.796;44.740;2024-03-22T00:20:58;10.23;;;5.38;;
75700;SDS011;64321;48.796;44.740;2024-03-22T00:26:00;11.23;;;4.35;;
75700;SDS011;64321;48.796;44.740;2024-03-22T00:31:01;11.88;;;3.97;;
75700;SDS011;64321;48.796;44.740;2024-03-22T00:36:03;13.50;;;4.07;;
75700;SDS011;64321;48.796;44.740;2024-03-22T00:41:04;10.35;;;4.13;;
75700;SDS011;64321;48.796;44.740;2024-03-22T00:46:06;9.85;;;3.55;;
75700;SDS011;64321;48.796;44.740;2024-03-22T00:51:08;7.68;;;3.90;;
75700;SDS011;64321;48.796;44.740;2024-03-22T00:56:10;11.95;;;4.13;;
75700;SDS011;64321;48.796;44.740;2024-03-22T01:01:11;12.18;;;3.78;;
75700;SDS011;64321;48.796;44.740;2024-03-22T01:06:12;9.85;;;4.03;;
75700;SDS011;64321;48.796;44.740;2024-03-22T01:11:14;12.73;;;4.30;;
75700;SDS011;64321;48.796;44.740;2024-03-22T01:16:15;9.10;;;3.53;;
75700;SDS011;64321;48.796;44.740;2024-03-22T01:26:18;14.35;;;4.50;;
75700;SDS011;64321;48.796;44.740;2024-03-22T01:31:20;14.77;;;4.82;;
75700;SDS011;64321;48.796;44.740;2024-03-22T01:36:21;12.82;;;4.47;;
75700;SDS011;64321;48.796;44.740;2024-03-22T01:41:23;13.73;;;4.63;;
75700;SDS011;64321;48.796;44.740;2024-03-22T01:46:24;16.92;;;4.78;;
75700;SDS011;64321;48.796;44.740;2024-03-22T01:51:26;14.55;;;5.03;;
75700;SDS011;64321;48.796;44.740;2024-03-22T01:56:27;11.93;;;5.20;;
75700;SDS011;64321;48.796;44.740;2024-03-22T02:01:29;13.95;;;4.93;;
75700;SDS011;64321;48.796;44.740;2024-03-22T02:06:31;10.27;;;5.18;;
75700;SDS011;64321;48.796;44.740;2024-03-22T02:11:33;14.07;;;4.95;;
75700;SDS011;64321;48.796;44.740;2024-03-22T02:16:35;17.50;;;5.50;;
75700;SDS011;64321;48.796;44.740;2024-03-22T02:21:36;15.13;;;5.25;;
75700;SDS011;64321;48.796;44.740;2024-03-22T02:26:37;12.40;;;5.15;;
75700;SDS011;64321;48.796;44.740;2024-03-22T02:31:39;12.55;;;4.45;;
75700;SDS011;64321;48.796;44.740;2024-03-22T02:36:40;13.68;;;4.80;;
75700;SDS011;64321;48.796;44.740;2024-03-22T02:41:41;9.10;;;4.38;;
75700;SDS011;64321;48.796;44.740;2024-03-22T02:46:43;8.85;;;4.28;;
75700;SDS011;64321;48.796;44.740;2024-03-22T02:51:44;8.32;;;3.78;;
75700;SDS011;64321;48.796;44.740;2024-03-22T02:56:46;10.88;;;4.15;;
75700;SDS011;64321;48.796;44.740;2024-03-22T03:01:47;11.38;;;4.50;;
75700;SDS011;64321;48.796;44.740;2024-03-22T03:06:49;9.57;;;4.45;;
75700;SDS011;64321;48.796;44.740;2024-03-22T03:11:50;10.00;;;4.40;;
75700;SDS011;64321;48.796;44.740;2024-03-22T03:16:51;10.10;;;4.35;;
75700;SDS011;64321;48.796;44.740;2024-03-22T03:21:53;7.75;;;3.80;;
75700;SDS011;64321;48.796;44.740;2024-03-22T03:26:54;9.02;;;4.13;;
75700;SDS011;64321;48.796;44.740;2024-03-22T03:31:56;11.27;;;4.70;;
75700;SDS011;64321;48.796;44.740;2024-03-22T03:36:57;16.95;;;5.18;;
75700;SDS011;64321;48.796;44.740;2024-03-22T03:42:01;13.60;;;4.78;;
75700;SDS011;64321;48.796;44.740;2024-03-22T03:47:03;11.68;;;5.68;;
75700;SDS011;64321;48.796;44.740;2024-03-22T03:52:05;12.18;;;5.00;;
75700;SDS011;64321;48.796;44.740;2024-03-22T03:57:06;13.68;;;4.72;;
75700;SDS011;64321;48.796;44.740;2024-03-22T04:02:08;9.90;;;4.60;;
75700;SDS011;64321;48.796;44.740;2024-03-22T04:07:09;10.32;;;4.40;;
75700;SDS011;64321;48.796;44.740;2024-03-22T04:12:11;11.55;;;4.07;;
75700;SDS011;64321;48.796;44.740;2024-03-22T04:17:12;10.55;;;4.70;;
75700;SDS011;64321;48.796;44.740;2024-03-22T04:22:13;11.80;;;5.00;;
75700;SDS011;64321;48.796;44.740;2024-03-22T04:27:15;10.20;;;4.63;;
75700;SDS011;64321;48.796;44.740;2024-03-22T04:32:16;16.80;;;5.93;;
75700;SDS011;64321;48.796;44.740;2024-03-22T04:37:17;12.70;;;4.97;;
75700;SDS011;64321;48.796;44.740;2024-03-22T04:42:19;13.93;;;4.97;;
75700;SDS011;64321;48.796;44.740;2024-03-22T04:47:20;13.70;;;5.20;;
75700;SDS011;64321;48.796;44.740;2024-03-22T04:52:22;12.68;;;5.70;;
75700;SDS011;64321;48.796;44.740;2024-03-22T05:02:25;14.18;;;5.22;;
75700;SDS011;64321;48.796;44.740;2024-03-22T05:07:26;14.05;;;5.40;;
75700;SDS011;64321;48.796;44.740;2024-03-22T05:12:28;13.40;;;5.90;;
75700;SDS011;64321;48.796;44.740;2024-03-22T05:17:30;13.93;;;5.63;;
75700;SDS011;64321;48.796;44.740;2024-03-22T05:22:32;18.42;;;6.68;;
75700;SDS011;64321;48.796;44.740;2024-03-22T05:27:34;13.18;;;4.60;;
75700;SDS011;64321;48.796;44.740;2024-03-22T05:32:35;17.10;;;5.53;;
75700;SDS011;64321;48.796;44.740;2024-03-22T05:37:37;20.02;;;6.00;;
75700;SDS011;64321;48.796;44.740;2024-03-22T05:42:38;16.50;;;6.18;;
75700;SDS011;64321;48.796;44.740;2024-03-22T05:47:40;18.55;;;6.32;;
75700;SDS011;64321;48.796;44.740;2024-03-22T05:52:41;17.35;;;6.82;;
75700;SDS011;64321;48.796;44.740;2024-03-22T05:57:43;16.08;;;5.95;;
75700;SDS011;64321;48.796;44.740;2024-03-22T06:02:44;16.65;;;6.15;;
75700;SDS011;64321;48.796;44.740;2024-03-22T06:07:46;13.70;;;5.35;;
75700;SDS011;64321;48.796;44.740;2024-03-22T06:12:47;15.60;;;6.00;;
75700;SDS011;64321;48.796;44.740;2024-03-22T06:17:48;12.52;;;5.30;;
75700;SDS011;64321;48.796;44.740;2024-03-22T06:22:51;16.83;;;6.47;;
75700;SDS011;64321;48.796;44.740;2024-03-22T06:27:52;13.70;;;5.78;;
75700;SDS011;64321;48.796;44.740;2024-03-22T06:32:54;13.93;;;5.57;;
75700;SDS011;64321;48.796;44.740;2024-03-22T06:37:58;16.23;;;5.80;;
75700;SDS011;64321;48.796;44.740;2024-03-22T06:43:00;10.80;;;3.97;;
75700;SDS011;64321;48.796;44.740;2024-03-22T06:48:01;11.68;;;4.57;;
75700;SDS011;64321;48.796;44.740;2024-03-22T06:53:03;11.07;;;4.22;;
75700;SDS011;64321;48.796;44.740;2024-03-22T06:58:05;11.32;;;4.03;;
75700;SDS011;64321;48.796;44.740;2024-03-22T07:03:06;9.10;;;3.22;;
75700;SDS011;64321;48.796;44.740;2024-03-22T07:08:08;7.05;;;3.10;;
75700;SDS011;64321;48.796;44.740;2024-03-22T07:13:09;7.93;;;3.20;;
75700;SDS011;64321;48.796;44.740;2024-03-22T07:18:10;6.85;;;2.90;;
75700;SDS011;64321;48.796;44.740;2024-03-22T07:23:12;11.57;;;3.03;;
75700;SDS011;64321;48.796;44.740;2024-03-22T07:28:13;9.40;;;2.90;;
75700;SDS011;64321;48.796;44.740;2024-03-22T07:33:16;7.65;;;3.13;;
75700;SDS011;64321;48.796;44.740;2024-03-22T07:38:18;6.65;;;3.08;;
75700;SDS011;64321;48.796;44.740;2024-03-22T07:43:20;7.57;;;3.25;;
75700;SDS011;64321;48.796;44.740;2024-03-22T07:48:21;9.70;;;4.72;;
75700;SDS011;64321;48.796;44.740;2024-03-22T07:53:22;12.32;;;5.65;;
75700;SDS011;64321;48.796;44.740;2024-03-22T07:58:24;8.48;;;3.38;;
75700;SDS011;64321;48.796;44.740;2024-03-22T08:03:25;6.38;;;3.13;;
75700;SDS011;64321;48.796;44.740;2024-03-22T08:08:26;10.25;;;3.97;;
75700;SDS011;64321;48.796;44.740;2024-03-22T08:13:28;5.72;;;3.10;;
75700;SDS011;64321;48.796;44.740;2024-03-22T08:18:29;8.52;;;3.80;;
75700;SDS011;64321;48.796;44.740;2024-03-22T08:23:30;11.23;;;4.60;;
75700;SDS011;64321;48.796;44.740;2024-03-22T08:28:32;9.27;;;5.05;;
75700;SDS011;64321;48.796;44.740;2024-03-22T08:33:33;12.07;;;6.55;;
75700;SDS011;64321;48.796;44.740;2024-03-22T08:38:35;12.63;;;5.35;;
75700;SDS011;64321;48.796;44.740;2024-03-22T08:43:37;8.45;;;4.70;;
75700;SDS011;64321;48.796;44.740;2024-03-22T08:48:38;9.73;;;5.22;;
75700;SDS011;64321;48.796;44.740;2024-03-22T08:53:39;11.10;;;5.32;;
75700;SDS011;64321;48.796;44.740;2024-03-22T08:58:41;8.60;;;4.28;;
75700;SDS011;64321;48.796;44.740;2024-03-22T09:03:42;9.35;;;4.60;;
75700;SDS011;64321;48.796;44.740;2024-03-22T09:08:47;11.98;;;5.32;;
75700;SDS011;64321;48.796;44.740;2024-03-22T09:13:50;9.38;;;4.15;;
75700;SDS011;64321;48.796;44.740;2024-03-22T09:18:52;7.63;;;3.63;;
75700;SDS011;64321;48.796;44.740;2024-03-22T09:23:54;8.43;;;3.60;;
75700;SDS011;64321;48.796;44.740;2024-03-22T09:28:55;7.13;;;3.78;;
75700;SDS011;64321;48.796;44.740;2024-03-22T09:33:56;8.50;;;4.45;;
75700;SDS011;64321;48.796;44.740;2024-03-22T09:38:58;7.38;;;3.63;;
75700;SDS011;64321;48.796;44.740;2024-03-22T09:44:00;11.77;;;5.22;;
75700;SDS011;64321;48.796;44.740;2024-03-22T09:49:05;11.50;;;4.60;;
75700;SDS011;64321;48.796;44.740;2024-03-22T09:54:08;9.02;;;3.60;;
75700;SDS011;64321;48.796;44.740;2024-03-22T09:59:11;11.48;;;4.20;;
75700;SDS011;64321;48.796;44.740;2024-03-22T10:04:12;11.18;;;4.35;;
75700;SDS011;64321;48.796;44.740;2024-03-22T10:09:15;12.65;;;4.13;;
75700;SDS011;64321;48.796;44.740;2024-03-22T10:14:18;12.98;;;3.90;;
75700;SDS011;64321;48.796;44.740;2024-03-22T10:19:20;14.55;;;4.55;;
75700;SDS011;64321;48.796;44.740;2024-03-22T10:24:23;14.05;;;4.25;;
75700;SDS011;64321;48.796;44.740;2024-03-22T10:29:24;11.55;;;3.22;;
75700;SDS011;64321;48.796;44.740;2024-03-22T10:34:26;15.88;;;5.85;;
75700;SDS011;64321;48.796;44.740;2024-03-22T10:39:29;13.40;;;3.80;;
75700;SDS011;64321;48.796;44.740;2024-03-22T10:44:31;8.05;;;2.22;;
75700;SDS011;64321;48.796;44.740;2024-03-22T10:54:40;6.57;;;3.42;;
75700;SDS011;64321;48.796;44.740;2024-03-22T10:59:46;6.63;;;2.72;;
75700;SDS011;64321;48.796;44.740;2024-03-22T11:04:56;7.15;;;2.95;;
75700;SDS011;64321;48.796;44.740;2024-03-22T11:10:01;11.35;;;3.80;;
75700;SDS011;64321;48.796;44.740;2024-03-22T11:15:05;9.23;;;2.90;;
75700;SDS011;64321;48.796;44.740;2024-03-22T11:20:07;10.25;;;3.88;;
75700;SDS011;64321;48.796;44.740;2024-03-22T11:25:08;5.90;;;2.22;;
75700;SDS011;64321;48.796;44.740;2024-03-22T11:30:10;6.45;;;2.00;;
75700;SDS011;64321;48.796;44.740;2024-03-22T11:35:12;5.38;;;2.03;;
75700;SDS011;64321;48.796;44.740;2024-03-22T11:40:14;10.75;;;4.25;;
75700;SDS011;64321;48.796;44.740;2024-03-22T11:45:16;5.38;;;2.28;;
75700;SDS011;64321;48.796;44.740;2024-03-22T11:50:19;8.73;;;2.60;;
75700;SDS011;64321;48.796;44.740;2024-03-22T11:55:20;6.38;;;2.22;;
75700;SDS011;64321;48.796;44.740;2024-03-22T12:05:23;5.72;;;2.28;;
75700;SDS011;64321;48.796;44.740;2024-03-22T12:10:25;6.00;;;2.30;;
75700;SDS011;64321;48.796;44.740;2024-03-22T12:15:27;5.07;;;2.17;;
75700;SDS011;64321;48.796;44.740;2024-03-22T12:20:28;5.70;;;1.90;;
75700;SDS011;64321;48.796;44.740;2024-03-22T12:25:30;4.38;;;1.77;;
75700;SDS011;64321;48.796;44.740;2024-03-22T12:30:32;6.50;;;2.00;;
75700;SDS011;64321;48.796;44.740;2024-03-22T12:35:38;6.25;;;1.67;;
75700;SDS011;64321;48.796;44.740;2024-03-22T12:40:41;5.95;;;2.10;;
75700;SDS011;64321;48.796;44.740;2024-03-22T12:50:43;4.10;;;1.45;;
75700;SDS011;64321;48.796;44.740;2024-03-22T13:00:46;6.40;;;2.08;;
75700;SDS011;64321;48.796;44.740;2024-03-22T13:05:47;8.10;;;1.52;;
75700;SDS011;64321;48.796;44.740;2024-03-22T13:10:49;8.57;;;1.75;;
75700;SDS011;64321;48.796;44.740;2024-03-22T13:20:52;3.50;;;1.50;;
75700;SDS011;64321;48.796;44.740;2024-03-22T13:25:54;3.08;;;1.33;;
75700;SDS011;64321;48.796;44.740;2024-03-22T13:31:03;9.05;;;1.63;;
75700;SDS011;64321;48.796;44.740;2024-03-22T13:36:07;4.43;;;1.63;;
75700;SDS011;64321;48.796;44.740;2024-03-22T13:41:08;8.18;;;2.20;;
75700;SDS011;64321;48.796;44.740;2024-03-22T13:51:15;5.55;;;2.10;;
75700;SDS011;64321;48.796;44.740;2024-03-22T13:56:17;4.25;;;1.13;;
75700;SDS011;64321;48.796;44.740;2024-03-22T14:01:18;4.22;;;1.38;;
75700;SDS011;64321;48.796;44.740;2024-03-22T14:06:20;6.30;;;1.52;;
75700;SDS011;64321;48.796;44.740;2024-03-22T14:16:23;4.68;;;2.05;;
75700;SDS011;64321;48.796;44.740;2024-03-22T14:26:25;5.68;;;1.33;;
75700;SDS011;64321;48.796;44.740;2024-03-22T14:31:26;5.82;;;1.30;;
75700;SDS011;64321;48.796;44.740;2024-03-22T14:36:28;4.53;;;1.70;;
75700;SDS011;64321;48.796;44.740;2024-03-22T14:46:30;7.80;;;2.30;;
75700;SDS011;64321;48.796;44.740;2024-03-22T14:51:31;6.60;;;1.65;;
75700;SDS011;64321;48.796;44.740;2024-03-22T14:56:33;6.88;;;2.08;;
75700;SDS011;64321;48.796;44.740;2024-03-22T15:06:36;9.10;;;2.03;;
75700;SDS011;64321;48.796;44.740;2024-03-22T15:11:37;6.03;;;2.03;;
75700;SDS011;64321;48.796;44.740;2024-03-22T15:16:41;10.35;;;2.33;;
75700;SDS011;64321;48.796;44.740;2024-03-22T15:21:43;7.47;;;1.73;;
75700;SDS011;64321;48.796;44.740;2024-03-22T15:26:45;6.22;;;2.67;;
75700;SDS011;64321;48.796;44.740;2024-03-22T15:36:47;13.95;;;2.95;;
75700;SDS011;64321;48.796;44.740;2024-03-22T15:41:52;8.15;;;3.47;;
75700;SDS011;64321;48.796;44.740;2024-03-22T15:51:56;8.52;;;3.65;;
75700;SDS011;64321;48.796;44.740;2024-03-22T15:56:57;7.75;;;3.95;;
75700;SDS011;64321;48.796;44.740;2024-03-22T16:01:59;8.88;;;3.97;;
75700;SDS011;64321;48.796;44.740;2024-03-22T16:07:00;10.18;;;4.22;;
75700;SDS011;64321;48.796;44.740;2024-03-22T16:12:02;9.80;;;4.68;;
75700;SDS011;64321;48.796;44.740;2024-03-22T16:17:06;17.15;;;5.30;;
75700;SDS011;64321;48.796;44.740;2024-03-22T16:22:08;15.18;;;5.40;;
75700;SDS011;64321;48.796;44.740;2024-03-22T16:27:09;11.73;;;4.88;;
75700;SDS011;64321;48.796;44.740;2024-03-22T16:32:10;11.82;;;5.78;;
75700;SDS011;64321;48.796;44.740;2024-03-22T16:37:13;16.13;;;5.63;;
75700;SDS011;64321;48.796;44.740;2024-03-22T16:42:15;12.52;;;5.45;;
75700;SDS011;64321;48.796;44.740;2024-03-22T16:47:16;10.05;;;5.05;;
75700;SDS011;64321;48.796;44.740;2024-03-22T16:52:17;16.65;;;5.30;;
75700;SDS011;64321;48.796;44.740;2024-03-22T16:57:19;16.30;;;5.85;;
75700;SDS011;64321;48.796;44.740;2024-03-22T17:02:20;15.55;;;5.25;;
75700;SDS011;64321;48.796;44.740;2024-03-22T17:07:22;12.85;;;5.35;;
75700;SDS011;64321;48.796;44.740;2024-03-22T17:12:23;12.15;;;5.25;;
75700;SDS011;64321;48.796;44.740;2024-03-22T17:17:25;11.75;;;4.78;;
75700;SDS011;64321;48.796;44.740;2024-03-22T17:22:26;10.38;;;4.50;;
75700;SDS011;64321;48.796;44.740;2024-03-22T17:27:28;10.00;;;3.58;;
75700;SDS011;64321;48.796;44.740;2024-03-22T17:32:29;11.73;;;3.83;;
75700;SDS011;64321;48.796;44.740;2024-03-22T17:37:32;7.80;;;3.42;;
75700;SDS011;64321;48.796;44.740;2024-03-22T17:42:33;10.50;;;3.60;;
75700;SDS011;64321;48.796;44.740;2024-03-22T17:47:34;7.22;;;2.92;;
75700;SDS011;64321;48.796;44.740;2024-03-22T17:52:36;7.10;;;2.42;;
75700;SDS011;64321;48.796;44.740;2024-03-22T17:57:37;8.75;;;2.85;;
75700;SDS011;64321;48.796;44.740;2024-03-22T18:02:39;8.02;;;2.72;;
75700;SDS011;64321;48.796;44.740;2024-03-22T18:07:40;10.63;;;3.78;;
75700;SDS011;64321;48.796;44.740;2024-03-22T18:12:41;7.55;;;3.13;;
75700;SDS011;64321;48.796;44.740;2024-03-22T18:17:43;8.07;;;3.90;;
75700;SDS011;64321;48.796;44.740;2024-03-22T18:22:44;9.82;;;4.00;;
75700;SDS011;64321;48.796;44.740;2024-03-22T18:27:46;10.23;;;5.28;;
75700;SDS011;64321;48.796;44.740;2024-03-22T18:32:47;14.85;;;5.53;;
75700;SDS011;64321;48.796;44.740;2024-03-22T18:37:48;10.88;;;6.07;;
75700;SDS011;64321;48.796;44.740;2024-03-22T18:42:50;13.00;;;7.25;;
75700;SDS011;64321;48.796;44.740;2024-03-22T18:47:53;14.68;;;6.88;;
75700;SDS011;64321;48.796;44.740;2024-03-22T18:52:54;13.45;;;5.90;;
75700;SDS011;64321;48.796;44.740;2024-03-22T18:57:55;19.73;;;6.30;;
75700;SDS011;64321;48.796;44.740;2024-03-22T19:02:57;11.98;;;6.18;;
75700;SDS011;64321;48.796;44.740;2024-03-22T19:07:59;15.70;;;6.85;;
75700;SDS011;64321;48.796;44.740;2024-03-22T19:13:00;16.77;;;8.43;;
75700;SDS011;64321;48.796;44.740;2024-03-22T19:18:02;15.98;;;9.32;;
75700;SDS011;64321;48.796;44.740;2024-03-22T19:23:05;18.92;;;8.38;;
75700;SDS011;64321;48.796;44.740;2024-03-22T19:28:09;13.00;;;7.57;;
75700;SDS011;64321;48.796;44.740;2024-03-22T19:33:11;12.93;;;6.88;;
75700;SDS011;64321;48.796;44.740;2024-03-22T19:38:12;13.13;;;6.15;;
75700;SDS011;64321;48.796;44.740;2024-03-22T19:43:13;13.23;;;6.20;;
75700;SDS011;64321;48.796;44.740;2024-03-22T19:48:15;13.95;;;7.03;;
75700;SDS011;64321;48.796;44.740;2024-03-22T19:53:16;12.75;;;7.07;;
75700;SDS011;64321;48.796;44.740;2024-03-22T19:58:19;13.55;;;6.57;;
75700;SDS011;64321;48.796;44.740;2024-03-22T20:03:23;12.00;;;6.65;;
75700;SDS011;64321;48.796;44.740;2024-03-22T20:08:24;11.52;;;5.88;;
75700;SDS011;64321;48.796;44.740;2024-03-22T20:13:26;11.65;;;5.85;;
75700;SDS011;64321;48.796;44.740;2024-03-22T20:18:28;9.50;;;5.75;;
75700;SDS011;64321;48.796;44.740;2024-03-22T20:23:30;12.15;;;5.20;;
75700;SDS011;64321;48.796;44.740;2024-03-22T20:28:31;12.68;;;5.35;;
75700;SDS011;64321;48.796;44.740;2024-03-22T20:33:33;10.75;;;5.18;;
